KALI/ALI METAR and TAF weather

Enter ICAO airport designator
Station Type Date Time Source
KALI METAR 2020/12/05 05:53 UTC NOAA

KALI 050553Z AUTO 00000KT 10SM CLR 06/03 A3024 RMK AO2 SLP241 T00560028 10117 20044 401610044 53002


Station Type Date Time Source
KALI Decoded METAR 2020/12/05 05:53 UTC NOAA

ALICE INTERNATIONAL AIRPORT, TX, United States (KALI) 27-44N 098-01W 53M
Dec 05, 2020 - 12:53 AM EST / 2020.12.05 0553 UTC
Wind: Calm:0
Visibility: 10 mile(s):0
Sky conditions: clear
Temperature: 42.1 F (5.6 C)
Dew Point: 37.0 F (2.8 C)
Relative Humidity: 82%
Pressure (altimeter): 30.24 in. Hg (1024 hPa)
Pressure tendency: 0.01 inches (0.2 hPa) higher than three hours ago
ob: KALI 050553Z AUTO 00000KT 10SM CLR 06/03 A3024 RMK AO2 SLP241 T00560028 10117 20044 401610044 53002
cycle: 6

Station Type Date Time Source
KALI TAF 2020/12/05 06:24 UTC NOAA

TAF KALI 050523Z 0506/0606 VRB02KT P6SM SCT070
FM050700 35004KT P6SM BKN060 OVC120
FM051200 01007KT P6SM SCT028 OVC050
FM051800 34010KT P6SM VCSH BKN025 OVC050
FM060200 34006KT P6SM SCT040 BKN070

Example: see airport list